• Join FlightAware (Why Join?)
  • Login
  • US Flag 
06:14AM EST


 

Airport Tracker/Info


-or-


 

Live Flight TrackerFlight Track Log ✈ ASQ5678 ✈ 29-Apr-2013 ✈ KBTV - KEWR

Flight Track Log - Related Links

Times and Time Zones

All times are in EDT time to prevent confusion due to time zone crossing. See the ASQ5678 flight status page for this flight to view local times or setup timezone preferences in your user account.

Time Position Orientation Groundspeed Altitude Reporting Facility
EDT Latitude Longitude Course Direction KTS MPH feet Rate Location/Type
02:28PM 44.2778 -73.1853 196° South 241 277 8,700  Level Boston Center
02:29PM 44.1935 -73.2516 190° South  Level FlightAware Approximate
02:29PM 44.2067 -73.2133 196° South 252 290 10,400  Level Boston Center
02:30PM 44.1235 -73.2691 190° South  Level FlightAware Approximate
02:30PM 44.1231 -73.2469 196° South 285 328 11,400  Level Boston Center
02:31PM 44.0539 -73.2885 196° South  Level FlightAware Approximate
02:31PM 44.0394 -73.2806 196° South 334 384 13,000  Level Boston Center
02:32PM 43.9855 -73.3158 196° South  Level FlightAware Approximate
02:32PM 43.9497 -73.3167 196° South 345 397 14,600  Level Boston Center
02:33PM 43.9172 -73.3431 196° South  Level FlightAware Approximate
02:33PM 43.8556 -73.3556 197° South 350 403 16,100  Level Boston Center
02:34PM 43.7572 -73.3944 196° South 355 409 17,500 1,260 Climbing Boston Center
02:35PM 43.6589 -73.4331 196° South 365 420 18,700 1,200 Climbing Boston Center
02:36PM 43.5586 -73.4714 195° South 370 426 19,900 1,200 Climbing Boston Center
02:37PM 43.4561 -73.5097 195° South 375 432 21,200 1,020 Climbing Boston Center
02:38PM 43.3536 -73.5508 196° South 380 437 22,000 360 Climbing Boston Center
02:39PM 43.2428 -73.5944 196° South 392 451 22,000  Level Boston Center
02:40PM 43.1528 -73.6297 196° South 406 467 22,000 -720 Level Boston Center
02:41PM 43.0106 -73.6922 198° South 418 481 20,600 -1,860 Descending Boston Center
02:42PM 42.9161 -73.7328 197° South 410 472 18,300 -2,280 Descending Boston Center
02:43PM 42.8031 -73.7842 198° South 394 453 16,100 -1,200 Descending Boston Center
02:44PM 42.7114 -73.7767 177° South 355 409 15,900 -120 Descending Boston Center
02:45PM 42.6306 -73.7411 162° South 326 375 15,900  Level Boston Center
02:46PM 42.5539 -73.7000 158° South 326 375 15,900  Level Boston Center
02:47PM 42.4625 -73.6586 162° South 326 375 15,900  Level Boston Center
02:48PM 42.3856 -73.6486 175° South 306 352 15,900  Level Boston Center
02:49PM 42.2958 -73.6667 188° South 301 346 15,900  Level Boston Center
02:50PM 42.2328 -73.7019 203° Southwest 296 341 15,900  Level Boston Center
02:51PM 42.1467 -73.7644 208° Southwest 301 346 16,000  Climbing Boston Center
02:52PM 42.1247 -73.8619 253° West 290 334 15,900 -60 Descending Boston Center
02:53PM 42.0961 -73.9789 252° West 301 346 15,900  Level Boston Center
02:54PM 42.0758 -74.0875 256° West 307 353 15,900 -600 Level Boston Center
02:55PM 42.0700 -74.1992 266° West 307 353 14,800 -1,500 Descending Boston Center
02:56PM 42.0661 -74.3139 267° West 307 353 13,000 -1,500 Descending Boston Center
02:57PM 42.0597 -74.4311 266° West 318 366 11,800 -1,020 Descending Boston Center
02:58PM 42.0558 -74.5344 267° West 311 358 11,000 -420 Descending Boston Center
02:59PM 41.9892 -74.5406 184° South 206 237 11,000  Level Boston Center
03:00PM 41.9294 -74.4994 153° Southeast 205 236 11,000  Level Boston Center
03:01PM 41.8719 -74.4475 146° Southeast 244 281 11,000  Level Boston Center
03:02PM 41.8144 -74.4011 149° Southeast 251 289 11,000  Level Boston Center
03:03PM 41.7528 -74.3519 149° Southeast 251 289 11,000  Level Boston Center
03:04PM 41.6911 -74.3028 149° Southeast 256 295 11,000  Level Boston Center
03:05PM 41.6500 -74.2708 150° Southeast 251 289 11,000  Level Boston Center
03:06PM 41.6319 -74.3539 254° West 127 146 11,000 -420 Level Boston Center
03:07PM 41.7025 -74.3725 349° North 131 151 10,200 -540 Descending Boston Center
03:08PM 41.7717 -74.3442 17° North 202 232 10,000 -60 Descending Boston Center
03:09PM 41.8381 -74.3683 345° North 242 278 10,100 -120 Climbing Boston Center
03:10PM 41.8722 -74.4336 305° West 220 253 9,800 -540 Descending Boston Center
03:11PM 41.8119 -74.4289 177° South 119 137 9,100 -840 Descending Boston Center
03:12PM 41.8156 -74.3397 87° East 167 192 8,200 -600 Descending Boston Center
03:13PM 41.8275 -74.2456 80° East 228 262 8,000 -480 Descending Boston Center
03:14PM 41.7842 -74.2081 147° Southeast 189 217 7,300 -540 Descending Boston Center
03:15PM 41.7253 -74.2397 202° Southwest 195 224 7,000 -180 Descending Boston Center
03:16PM 41.6625 -74.2714 201° Southwest 225 259 7,000  Level Boston Center
03:17PM 41.5994 -74.2972 197° South 242 278 7,100  Climbing Boston Center
03:18PM 41.5383 -74.3289 201° Southwest 242 278 7,000  Descending Boston Center
03:20PM 41.4000 -74.3833 196° South 239 275 7,100  Climbing New York TRACON
03:21PM 41.3333 -74.4167 201° Southwest 243 280 7,100  Level New York TRACON
03:22PM 41.2667 -74.4500 201° Southwest 240 276 7,100  Level New York TRACON
03:23PM 41.2000 -74.4833 201° Southwest 245 282 7,100  Level New York TRACON
03:24PM 41.1500 -74.5000 194° South 221 254 7,100 -180 Level New York TRACON
03:25PM 41.1167 -74.4500 131° Southeast 247 284 6,800 -600 Descending New York TRACON
03:26PM 41.1333 -74.3667 75° East 247 284 5,900 -900 Descending New York TRACON
03:27PM 41.1167 -74.3000 108° East 212 244 5,100 -420 Descending New York TRACON
03:28PM 41.0667 -74.2333 135° Southeast 209 241 5,100 -300 Level New York TRACON
03:29PM 41.0333 -74.1833 131° Southeast 204 235 4,600 -600 Descending New York TRACON
03:30PM 40.9833 -74.1667 166° South 172 198 4,000 -600 Descending New York TRACON
03:31PM 40.9500 -74.1333 143° Southeast 165 190 3,400 -540 Descending New York TRACON
03:32PM 40.9000 -74.1167 166° South 164 189 3,000 -240 Descending New York TRACON
03:33PM 40.8667 -74.0667 131° Southeast 164 189 3,000  Level New York TRACON